Time;durP1;ratioP1;P1;durP2;ratioP2;P2;SDS_P1;SDS_P2;PMS_P1;PMS_P2;Temp;Humidity;BMP_temperature;BMP_pressure;BME280_temperature;BME280_humidity;BME280_pressure;Samples;Min_cycle;Max_cycle;Signal;HPM_P1;HPM_P2
2023/04/04 00:00:13;;;;;;;1.08;0.30;;;;;;;5.20;43.54;100669.59;5026663;28;20069;-74
2023/04/04 00:02:39;;;;;;;0.88;0.30;;;;;;;5.15;43.41;100663.91;5023802;28;20396;-74
2023/04/04 00:05:05;;;;;;;1.90;0.30;;;;;;;5.04;43.73;100669.81;5009036;28;20132;-74
2023/04/04 00:07:31;;;;;;;1.20;0.30;;;;;;;4.94;44.78;100666.19;5011883;28;20080;-75
2023/04/04 00:09:56;;;;;;;1.35;0.40;;;;;;;4.83;45.41;100672.06;5015860;28;20067;-74
2023/04/04 00:12:23;;;;;;;4.63;0.63;;;;;;;4.71;45.87;100664.34;5029875;28;20912;-74
2023/04/04 00:14:48;;;;;;;1.02;0.30;;;;;;;4.72;45.81;100677.16;5035799;28;20111;-74
2023/04/04 00:17:14;;;;;;;1.50;0.30;;;;;;;4.71;46.32;100675.50;5032793;28;20033;-74
2023/04/04 00:19:40;;;;;;;1.10;0.40;;;;;;;4.69;44.39;100667.03;5026648;28;20506;-74
2023/04/04 00:22:05;;;;;;;1.38;0.30;;;;;;;4.94;42.53;100666.19;5029346;28;20086;-74
2023/04/04 00:24:30;;;;;;;1.70;0.65;;;;;;;5.11;41.59;100672.81;5038949;28;20033;-74
2023/04/04 00:26:56;;;;;;;1.25;0.25;;;;;;;5.25;40.70;100663.16;5040444;28;20038;-75
2023/04/04 00:29:21;;;;;;;2.45;0.50;;;;;;;5.28;40.66;100665.53;5033772;28;20041;-74
2023/04/04 00:31:47;;;;;;;1.23;0.30;;;;;;;5.23;41.47;100671.94;5035406;28;20478;-74
2023/04/04 00:34:12;;;;;;;1.35;0.30;;;;;;;5.15;41.58;100664.75;5033769;28;20124;-74
2023/04/04 00:36:38;;;;;;;1.00;0.30;;;;;;;5.20;41.12;100652.31;5038245;28;20027;-74
2023/04/04 00:39:03;;;;;;;1.15;0.30;;;;;;;5.21;41.25;100663.47;5041925;28;20482;-75
2023/04/04 00:41:29;;;;;;;2.05;0.60;;;;;;;5.17;40.71;100662.06;5027312;28;20361;-74
2023/04/04 00:43:55;;;;;;;1.30;0.30;;;;;;;5.20;40.10;100661.84;5032298;28;20021;-74
2023/04/04 00:46:21;;;;;;;0.95;0.30;;;;;;;5.26;39.55;100662.22;5031287;28;20529;-75
2023/04/04 00:48:48;;;;;;;2.67;0.73;;;;;;;5.29;38.48;100640.53;5034821;28;20036;-75
2023/04/04 00:51:13;;;;;;;1.08;0.30;;;;;;;5.23;39.68;100641.78;5049015;28;20174;-74
2023/04/04 00:53:39;;;;;;;1.42;0.50;;;;;;;5.21;39.38;100645.41;5038117;28;20120;-75
2023/04/04 00:56:07;;;;;;;1.10;0.32;;;;;;;5.16;39.73;100650.06;5041059;28;20031;-76
2023/04/04 00:58:33;;;;;;;3.70;0.38;;;;;;;5.10;38.92;100671.97;5033074;28;20037;-76
2023/04/04 01:00:59;;;;;;;0.60;0.30;;;;;;;5.13;39.74;100664.03;5036046;28;20038;-75
2023/04/04 01:03:25;;;;;;;1.00;0.28;;;;;;;5.10;39.14;100660.81;5041154;28;20551;-75
2023/04/04 01:05:50;;;;;;;1.63;0.30;;;;;;;5.16;39.88;100648.31;5035919;28;20041;-75
2023/04/04 01:08:21;;;;;;;1.10;0.30;;;;;;;5.09;39.82;100638.50;5033302;28;20037;-75
2023/04/04 01:10:47;;;;;;;1.13;0.20;;;;;;;5.05;40.61;100645.63;5030524;28;20032;-75
2023/04/04 01:13:14;;;;;;;1.60;0.38;;;;;;;5.04;39.55;100643.16;5030360;28;20029;-75
2023/04/04 01:15:40;;;;;;;1.95;0.30;;;;;;;5.03;39.10;100636.34;5046744;28;20026;-73
2023/04/04 01:18:07;;;;;;;0.75;0.20;;;;;;;5.04;40.09;100640.56;5031976;28;20029;-74
2023/04/04 01:20:40;;;;;;;1.67;0.30;;;;;;;5.10;37.84;100643.56;5034586;28;20021;-74
2023/04/04 01:23:06;;;;;;;0.50;0.20;;;;;;;5.09;39.24;100648.84;5027496;28;20112;-75
2023/04/04 01:25:33;;;;;;;1.02;0.30;;;;;;;5.00;39.49;100630.47;5029157;28;20069;-74
2023/04/04 01:27:59;;;;;;;0.65;0.20;;;;;;;4.99;38.16;100638.31;5038848;28;20478;-75
2023/04/04 01:30:30;;;;;;;2.00;0.20;;;;;;;4.99;37.88;100631.38;5035393;28;20036;-73
2023/04/04 01:33:30;;;;;;;0.95;0.30;;;;;;;4.94;37.71;100655.88;5037714;28;20040;-74
2023/04/04 01:36:13;;;;;;;0.85;0.25;;;;;;;4.93;37.43;100618.88;5016622;28;20048;-74
2023/04/04 01:38:52;;;;;;;1.42;0.40;;;;;;;4.91;37.40;100628.50;5029448;28;20071;-74
2023/04/04 01:41:20;;;;;;;0.82;0.20;;;;;;;4.90;38.46;100629.44;5034166;28;20037;-73
2023/04/04 01:43:46;;;;;;;0.68;0.25;;;;;;;4.89;38.73;100630.34;5039884;28;20390;-74
2023/04/04 01:46:11;;;;;;;0.70;0.30;;;;;;;4.85;39.25;100631.50;5033267;28;20033;-74
2023/04/04 01:48:37;;;;;;;1.38;0.20;;;;;;;4.82;39.20;100633.44;5027797;28;20570;-74
2023/04/04 01:51:02;;;;;;;0.75;0.30;;;;;;;4.78;39.59;100619.94;5035308;28;20047;-74
2023/04/04 01:53:28;;;;;;;1.50;0.40;;;;;;;4.74;38.71;100613.31;5032816;28;20462;-74
2023/04/04 01:55:53;;;;;;;0.80;0.22;;;;;;;4.81;38.10;100624.06;5037301;28;20032;-74
2023/04/04 01:58:19;;;;;;;0.95;0.20;;;;;;;4.81;38.47;100635.22;5033048;28;20046;-74
2023/04/04 02:00:45;;;;;;;3.55;0.38;;;;;;;4.79;39.32;100631.91;5036233;28;20057;-74
2023/04/04 02:03:10;;;;;;;2.05;0.20;;;;;;;4.72;39.46;100630.69;5034551;28;20111;-73
2023/04/04 02:05:36;;;;;;;0.55;0.17;;;;;;;4.68;39.08;100631.81;5037247;28;20041;-74
2023/04/04 02:08:01;;;;;;;1.15;0.30;;;;;;;4.72;38.87;100628.09;5035788;28;20043;-74
2023/04/04 02:10:28;;;;;;;1.15;0.22;;;;;;;4.70;38.56;100627.38;5029250;28;20034;-74
2023/04/04 02:12:54;;;;;;;1.83;0.30;;;;;;;4.68;39.21;100629.25;5036381;28;20035;-75
2023/04/04 02:15:19;;;;;;;0.82;0.25;;;;;;;4.64;39.30;100628.63;5034211;28;20499;-74
2023/04/04 02:17:48;;;;;;;3.00;0.30;;;;;;;4.59;39.74;100620.34;5041361;28;20422;-74
2023/04/04 02:20:14;;;;;;;2.38;0.30;;;;;;;4.54;40.35;100613.84;5032776;28;20077;-74
2023/04/04 02:22:39;;;;;;;1.58;0.28;;;;;;;4.57;39.72;100622.22;5029158;28;20028;-74
2023/04/04 02:25:05;;;;;;;1.48;0.38;;;;;;;4.56;39.66;100615.41;5033917;28;20041;-74
2023/04/04 02:27:31;;;;;;;1.30;0.20;;;;;;;4.61;38.26;100622.84;5030953;28;20498;-74
2023/04/04 02:29:56;;;;;;;0.77;0.20;;;;;;;4.64;39.05;100612.31;5029192;28;20057;-74
2023/04/04 02:32:22;;;;;;;1.45;0.28;;;;;;;4.60;39.19;100605.69;5030268;28;20045;-74
2023/04/04 02:34:48;;;;;;;0.70;0.20;;;;;;;4.57;38.19;100613.66;5033567;28;20391;-74
2023/04/04 02:37:13;;;;;;;0.70;0.20;;;;;;;4.57;36.88;100621.38;5032290;28;20398;-75
2023/04/04 02:39:38;;;;;;;0.90;0.20;;;;;;;4.64;38.15;100617.47;5036395;28;20033;-74
2023/04/04 02:42:04;;;;;;;0.60;0.20;;;;;;;4.59;38.29;100614.38;5036305;28;20425;-75
2023/04/04 02:44:29;;;;;;;1.98;0.20;;;;;;;4.55;38.26;100605.19;5031656;28;20399;-75
2023/04/04 02:46:55;;;;;;;1.38;0.30;;;;;;;4.53;37.59;100607.03;5037155;28;20083;-74
2023/04/04 02:49:20;;;;;;;1.23;0.30;;;;;;;4.54;37.98;100613.84;5031636;28;20124;-74
2023/04/04 02:51:46;;;;;;;1.63;0.20;;;;;;;4.53;37.89;100602.69;5030586;28;20471;-75
2023/04/04 02:54:12;;;;;;;2.08;0.30;;;;;;;4.53;37.78;100604.44;5023380;28;20455;-74
2023/04/04 02:56:37;;;;;;;2.42;0.20;;;;;;;4.57;37.88;100600.75;5011249;28;20049;-74
2023/04/04 02:59:03;;;;;;;0.93;0.20;;;;;;;4.54;38.32;100606.09;5019932;28;20033;-75
2023/04/04 03:01:29;;;;;;;0.50;0.20;;;;;;;4.43;38.85;100613.72;5029713;28;20029;-74
2023/04/04 03:03:55;;;;;;;0.52;0.20;;;;;;;4.54;36.85;100603.53;5028843;28;20148;-74
2023/04/04 03:06:20;;;;;;;1.05;0.40;;;;;;;4.66;36.10;100595.78;5031004;28;20052;-74
2023/04/04 03:08:45;;;;;;;0.60;0.20;;;;;;;4.70;37.14;100601.56;5032174;28;20162;-75
2023/04/04 03:11:12;;;;;;;1.40;0.20;;;;;;;4.60;37.29;100601.38;5027057;28;20041;-75
2023/04/04 03:13:37;;;;;;;0.85;0.30;;;;;;;4.57;35.91;100611.06;5029438;28;20094;-74
2023/04/04 03:16:07;;;;;;;0.65;0.28;;;;;;;4.55;37.61;100597.44;5035980;28;20112;-74
2023/04/04 03:18:33;;;;;;;1.23;0.30;;;;;;;4.57;36.38;100596.41;5039855;28;20474;-74
2023/04/04 03:20:59;;;;;;;1.25;0.20;;;;;;;4.54;36.94;100601.78;5030169;28;20033;-75
2023/04/04 03:23:24;;;;;;;1.00;0.20;;;;;;;4.50;37.17;100594.34;5021546;28;20034;-75
2023/04/04 03:25:50;;;;;;;2.47;0.30;;;;;;;4.47;37.53;100599.69;5026245;28;20511;-76
2023/04/04 03:28:15;;;;;;;2.20;0.30;;;;;;;4.40;38.19;100598.44;5026014;28;20033;-75
2023/04/04 03:30:41;;;;;;;1.65;0.20;;;;;;;4.42;37.51;100602.59;5026435;28;20052;-76
2023/04/04 03:33:07;;;;;;;1.40;0.30;;;;;;;4.32;37.13;100628.16;5029449;28;20029;-74
2023/04/04 03:35:37;;;;;;;1.20;0.20;;;;;;;4.28;37.98;100607.81;5030532;28;20422;-75
2023/04/04 03:38:02;;;;;;;2.35;0.43;;;;;;;4.28;38.20;100610.41;5034707;28;20473;-75
2023/04/04 03:40:28;;;;;;;0.60;0.22;;;;;;;4.34;37.42;100610.81;5032378;28;20027;-75
2023/04/04 03:42:53;;;;;;;0.55;0.20;;;;;;;4.44;37.05;100612.78;5037763;28;20047;-75
2023/04/04 03:45:18;;;;;;;2.55;0.20;;;;;;;4.39;38.17;100618.25;5030866;28;20121;-75
2023/04/04 03:47:44;;;;;;;2.50;0.15;;;;;;;4.28;38.38;100611.22;5037213;28;20540;-75
2023/04/04 03:50:10;;;;;;;2.00;0.35;;;;;;;4.30;37.28;100618.88;5026207;28;20469;-75
2023/04/04 03:52:41;;;;;;;0.77;0.30;;;;;;;4.38;36.79;100610.63;5026624;28;20088;-75
2023/04/04 03:55:07;;;;;;;3.95;0.30;;;;;;;4.39;36.80;100612.28;5030050;28;20064;-75
2023/04/04 03:57:32;;;;;;;1.02;0.20;;;;;;;4.41;35.78;100613.00;5023563;28;20044;-75
2023/04/04 03:59:58;;;;;;;0.60;0.20;;;;;;;4.41;35.87;100611.25;5039980;28;20041;-76
2023/04/04 04:02:23;;;;;;;1.10;0.20;;;;;;;4.32;37.06;100607.50;5029404;28;20033;-75
2023/04/04 04:04:49;;;;;;;1.17;0.20;;;;;;;4.28;36.77;100608.66;5027456;28;20974;-74
2023/04/04 04:07:14;;;;;;;1.65;0.20;;;;;;;4.29;37.21;100607.72;5031994;28;20550;-75
2023/04/04 04:09:40;;;;;;;2.00;0.30;;;;;;;4.26;36.84;100609.66;5026834;28;20041;-75
2023/04/04 04:12:06;;;;;;;1.35;0.40;;;;;;;4.30;36.88;100614.53;5029413;28;20043;-75
2023/04/04 04:14:31;;;;;;;0.80;0.20;;;;;;;4.31;36.81;100613.59;5022819;28;20308;-75
2023/04/04 04:16:56;;;;;;;4.25;0.40;;;;;;;4.22;37.28;100615.97;5030027;28;20041;-75
2023/04/04 04:19:22;;;;;;;0.93;0.20;;;;;;;4.26;37.19;100604.50;5014572;28;20185;-75
2023/04/04 04:21:47;;;;;;;0.93;0.30;;;;;;;4.17;37.45;100621.44;5022946;28;20040;-75
2023/04/04 04:24:13;;;;;;;1.15;0.40;;;;;;;3.86;39.66;100616.59;5025642;28;20108;-75
2023/04/04 04:26:38;;;;;;;3.25;0.20;;;;;;;3.79;40.96;100623.06;5035481;28;20025;-75
2023/04/04 04:29:03;;;;;;;2.58;0.30;;;;;;;3.85;39.75;100618.34;5028775;28;20029;-75
2023/04/04 04:31:29;;;;;;;0.73;0.20;;;;;;;4.00;38.29;100632.00;5027877;28;20113;-75
2023/04/04 04:33:54;;;;;;;1.17;0.20;;;;;;;4.13;38.45;100619.97;5032530;28;20022;-74
2023/04/04 04:36:20;;;;;;;2.05;0.38;;;;;;;4.19;37.32;100621.34;5026702;28;20537;-75
2023/04/04 04:38:45;;;;;;;1.30;0.20;;;;;;;4.11;37.69;100624.41;5030036;28;20125;-75
2023/04/04 04:41:10;;;;;;;0.98;0.30;;;;;;;4.03;38.80;100620.66;5018121;28;20037;-75
2023/04/04 04:43:36;;;;;;;1.45;0.20;;;;;;;4.05;38.74;100629.13;5028976;28;20570;-75
2023/04/04 04:46:01;;;;;;;0.82;0.30;;;;;;;3.89;39.31;100635.25;5031297;28;20072;-75
2023/04/04 04:48:27;;;;;;;1.92;0.20;;;;;;;3.87;38.94;100631.97;5030478;28;20083;-75
2023/04/04 04:50:52;;;;;;;1.02;0.30;;;;;;;3.94;39.24;100640.13;5029091;28;20408;-75
2023/04/04 04:53:18;;;;;;;2.90;0.20;;;;;;;3.96;39.43;100631.38;5029621;28;20033;-75
2023/04/04 04:55:45;;;;;;;0.57;0.20;;;;;;;3.90;40.86;100631.75;5030929;28;20104;-75
2023/04/04 04:58:11;;;;;;;1.48;0.20;;;;;;;3.65;41.53;100629.94;5033171;28;20040;-75
2023/04/04 05:00:37;;;;;;;2.30;0.57;;;;;;;3.56;41.97;100638.22;5032854;28;20103;-75
2023/04/04 05:03:05;;;;;;;0.57;0.30;;;;;;;3.42;42.00;100642.56;5033014;28;20482;-75
2023/04/04 05:05:33;;;;;;;1.35;0.50;;;;;;;3.46;42.33;100644.03;5034652;28;20041;-75
2023/04/04 05:08:03;;;;;;;0.98;0.30;;;;;;;3.40;43.25;100641.84;5040199;28;20187;-75
2023/04/04 05:10:29;;;;;;;1.13;0.30;;;;;;;3.21;44.00;100658.44;5044357;28;20410;-75
2023/04/04 05:12:55;;;;;;;2.85;0.38;;;;;;;3.22;43.65;100648.97;5028795;28;20087;-75
2023/04/04 05:15:20;;;;;;;1.48;0.40;;;;;;;3.33;43.84;100651.69;5034439;28;20961;-75
2023/04/04 05:17:46;;;;;;;1.45;0.45;;;;;;;3.31;43.41;100656.94;5035134;28;20036;-75
2023/04/04 05:20:12;;;;;;;1.30;0.25;;;;;;;3.40;42.74;100660.69;5020864;28;20038;-75
2023/04/04 05:22:44;;;;;;;2.30;0.60;;;;;;;3.50;43.19;100668.69;5032680;28;20034;-74
2023/04/04 05:25:12;;;;;;;3.35;0.50;;;;;;;3.57;44.44;100669.97;5029557;28;20038;-74
2023/04/04 05:27:39;;;;;;;2.00;0.50;;;;;;;3.47;45.73;100668.88;5038512;28;20489;-75
2023/04/04 05:30:06;;;;;;;2.42;0.35;;;;;;;3.52;43.72;100675.41;5037050;28;20075;-74
2023/04/04 05:32:32;;;;;;;1.23;0.30;;;;;;;3.79;41.19;100678.00;5028046;28;20556;-74
2023/04/04 05:34:58;;;;;;;1.25;0.40;;;;;;;4.00;40.27;100670.69;5041162;28;20605;-74
2023/04/04 05:37:23;;;;;;;1.17;0.35;;;;;;;4.07;38.92;100677.09;5032161;28;20120;-75
2023/04/04 05:39:49;;;;;;;2.35;0.77;;;;;;;4.08;39.37;100681.34;5031222;28;20376;-74
2023/04/04 05:42:14;;;;;;;1.42;0.30;;;;;;;4.03;39.78;100670.47;5033828;28;20072;-75
2023/04/04 05:44:40;;;;;;;2.35;0.82;;;;;;;3.88;40.74;100681.75;5031801;28;20538;-74
2023/04/04 05:47:05;;;;;;;1.17;0.45;;;;;;;3.88;40.71;100676.59;5030092;28;20124;-75
2023/04/04 05:49:31;;;;;;;2.08;0.30;;;;;;;3.91;41.16;100666.94;5037335;28;20029;-74
2023/04/04 05:51:56;;;;;;;1.63;0.38;;;;;;;3.93;41.73;100677.16;5035664;28;20504;-74
2023/04/04 05:54:22;;;;;;;3.50;0.30;;;;;;;4.02;39.22;100689.47;5022286;28;20723;-74
2023/04/04 05:56:47;;;;;;;2.85;0.32;;;;;;;4.14;38.70;100704.16;5023786;28;20033;-75
2023/04/04 05:59:13;;;;;;;1.30;0.28;;;;;;;4.20;38.07;100692.63;5036795;28;20033;-75
2023/04/04 06:01:39;;;;;;;3.15;0.68;;;;;;;4.30;38.04;100686.75;5031952;28;20037;-74
2023/04/04 06:04:05;;;;;;;3.13;0.30;;;;;;;4.39;38.71;100692.25;5030721;28;20103;-75
2023/04/04 06:06:33;;;;;;;1.30;0.30;;;;;;;4.51;38.85;100694.88;5023686;28;20495;-75
2023/04/04 06:08:58;;;;;;;2.20;0.30;;;;;;;4.54;37.87;100693.84;5024322;28;20037;-74
2023/04/04 06:11:24;;;;;;;1.30;0.30;;;;;;;4.62;38.43;100687.25;5033556;28;20036;-75
2023/04/04 06:13:50;;;;;;;3.72;0.43;;;;;;;4.67;37.95;100679.22;5033481;28;20085;-75
2023/04/04 06:16:16;;;;;;;0.73;0.30;;;;;;;4.65;36.95;100706.88;5019750;28;20049;-75
2023/04/04 06:18:41;;;;;;;0.90;0.52;;;;;;;4.63;37.42;100703.56;5029614;28;20035;-74
2023/04/04 06:21:06;;;;;;;1.10;0.25;;;;;;;4.69;37.20;100690.25;5027258;28;20037;-75
2023/04/04 06:23:32;;;;;;;1.08;0.30;;;;;;;4.77;37.94;100700.88;5023536;28;20021;-74
2023/04/04 06:25:58;;;;;;;1.38;0.40;;;;;;;4.84;37.00;100702.13;5029040;28;20030;-74
2023/04/04 06:28:23;;;;;;;6.15;0.70;;;;;;;4.86;36.55;100700.28;5027726;28;20543;-73
2023/04/04 06:30:49;;;;;;;2.75;0.40;;;;;;;4.96;36.21;100703.91;5032861;28;20037;-75
2023/04/04 06:33:15;;;;;;;4.28;1.42;;;;;;;5.14;36.58;100698.44;5031496;28;20067;-75
2023/04/04 06:35:40;;;;;;;2.60;0.60;;;;;;;5.49;36.67;100691.66;5029280;28;20068;-72
2023/04/04 06:38:06;;;;;;;13.48;2.60;;;;;;;5.61;36.18;100703.75;5032754;28;20379;-70
2023/04/04 06:40:31;;;;;;;2.47;0.43;;;;;;;5.63;36.25;100696.69;5034778;28;20498;-73
2023/04/04 06:42:57;;;;;;;2.40;0.77;;;;;;;5.63;36.21;100707.03;5027228;28;20025;-74
2023/04/04 06:45:26;;;;;;;2.45;0.40;;;;;;;5.58;36.18;100695.38;5034365;28;20520;-73
2023/04/04 06:47:53;;;;;;;2.15;0.35;;;;;;;5.66;35.63;100696.50;5034596;28;20034;-73
2023/04/04 06:50:19;;;;;;;6.55;1.58;;;;;;;5.53;35.24;100695.69;5033493;28;20116;-74
2023/04/04 06:52:45;;;;;;;7.28;1.70;;;;;;;5.48;35.38;100692.59;5029639;28;20025;-73
2023/04/04 06:55:12;;;;;;;5.45;0.95;;;;;;;5.64;35.77;100688.00;5024000;28;20131;-73
2023/04/04 06:57:38;;;;;;;2.55;0.77;;;;;;;5.61;35.15;100680.47;5025895;28;20446;-74
2023/04/04 07:00:04;;;;;;;1.00;0.50;;;;;;;5.83;35.80;100697.88;5023837;28;20056;-74
2023/04/04 07:02:30;;;;;;;3.97;1.00;;;;;;;5.98;35.11;100690.81;5025548;28;20144;-74
2023/04/04 07:04:55;;;;;;;2.33;0.70;;;;;;;5.97;34.72;100694.34;5028622;28;20594;-74
2023/04/04 07:07:21;;;;;;;5.05;1.55;;;;;;;5.90;35.27;100682.78;5028616;28;20107;-74
2023/04/04 07:09:46;;;;;;;2.72;0.30;;;;;;;5.97;35.13;100691.75;5026148;28;20033;-74
2023/04/04 07:12:12;;;;;;;1.95;0.45;;;;;;;6.16;36.25;100686.88;5028623;28;20064;-74
2023/04/04 07:14:37;;;;;;;1.63;0.40;;;;;;;6.57;36.42;100677.88;5029445;28;20104;-74
2023/04/04 07:17:03;;;;;;;1.73;0.40;;;;;;;7.01;35.85;100681.50;5026826;28;20483;-72
2023/04/04 07:19:28;;;;;;;2.35;0.40;;;;;;;7.10;35.06;100685.94;5030076;28;20037;-74
2023/04/04 07:21:54;;;;;;;4.53;0.50;;;;;;;6.89;34.28;100681.47;5029761;28;20112;-74
2023/04/04 07:24:20;;;;;;;2.95;0.40;;;;;;;6.58;34.40;100677.78;5031142;28;20395;-72
2023/04/04 07:26:46;;;;;;;2.92;0.30;;;;;;;6.57;34.89;100693.41;5032851;28;20112;-73
2023/04/04 07:29:11;;;;;;;1.20;0.40;;;;;;;6.88;33.70;100697.94;5031569;28;20048;-74
2023/04/04 07:31:36;;;;;;;1.35;0.25;;;;;;;6.80;33.47;100684.75;5026469;28;20064;-72
2023/04/04 07:34:02;;;;;;;3.92;0.57;;;;;;;6.78;34.48;100673.69;5037192;28;20037;-74
2023/04/04 07:36:28;;;;;;;4.07;0.60;;;;;;;7.11;34.34;100693.59;5028370;28;20497;-74
2023/04/04 07:38:54;;;;;;;0.90;0.30;;;;;;;7.33;33.52;100672.06;5034934;28;20036;-75
2023/04/04 07:41:20;;;;;;;1.40;0.30;;;;;;;8.21;31.38;100696.16;5029682;28;20046;-74
2023/04/04 07:43:46;;;;;;;1.73;0.40;;;;;;;8.26;32.11;100680.22;5030285;28;20029;-74
2023/04/04 07:46:11;;;;;;;3.00;0.50;;;;;;;9.15;31.90;100686.69;5028292;28;20040;-74
2023/04/04 07:48:37;;;;;;;1.45;0.30;;;;;;;9.50;31.20;100679.28;5036272;28;20115;-74
2023/04/04 07:51:06;;;;;;;1.65;0.40;;;;;;;8.93;30.65;100692.88;5029709;28;20041;-74
2023/04/04 07:53:32;;;;;;;1.27;0.40;;;;;;;8.57;31.26;100691.53;5022489;28;20116;-75
2023/04/04 07:55:57;;;;;;;1.95;0.73;;;;;;;8.50;30.50;100675.66;5033810;28;20104;-74
2023/04/04 07:58:23;;;;;;;3.35;0.38;;;;;;;8.46;31.36;100687.25;5029405;28;20032;-74
2023/04/04 08:00:48;;;;;;;1.90;0.30;;;;;;;8.51;32.01;100681.66;5030198;28;20032;-74
2023/04/04 08:03:14;;;;;;;1.23;0.50;;;;;;;9.04;31.74;100678.97;5032248;28;20029;-74
2023/04/04 08:05:42;;;;;;;1.55;0.43;;;;;;;8.87;31.18;100675.19;5029919;28;20147;-74
2023/04/04 08:08:07;;;;;;;1.05;0.30;;;;;;;8.49;32.42;100688.78;5029323;28;20041;-74
2023/04/04 08:10:33;;;;;;;2.47;0.45;;;;;;;8.53;32.59;100675.38;5030033;28;20032;-73
2023/04/04 08:12:58;;;;;;;1.80;0.40;;;;;;;8.35;32.33;100686.47;5033868;28;20037;-74
2023/04/04 08:15:24;;;;;;;1.45;0.32;;;;;;;8.56;32.59;100676.91;5029330;28;20368;-73
2023/04/04 08:17:49;;;;;;;2.25;0.52;;;;;;;8.59;32.99;100680.06;5027232;28;20116;-74
2023/04/04 08:20:15;;;;;;;2.10;0.52;;;;;;;8.78;33.90;100676.78;5032005;28;20124;-74
2023/04/04 08:22:41;;;;;;;1.08;0.60;;;;;;;8.69;32.97;100677.53;5029829;28;20518;-74
2023/04/04 08:25:08;;;;;;;7.43;0.45;;;;;;;8.98;32.83;100669.91;5028685;28;20030;-74
2023/04/04 08:27:33;;;;;;;1.45;0.40;;;;;;;9.07;30.83;100665.69;5029531;28;20154;-75
2023/04/04 08:29:59;;;;;;;1.00;0.40;;;;;;;8.64;31.40;100651.13;5034392;28;20029;-74
2023/04/04 08:32:25;;;;;;;2.10;0.43;;;;;;;9.06;31.99;100656.25;5032120;28;20029;-75
2023/04/04 08:34:50;;;;;;;1.75;0.60;;;;;;;9.47;33.30;100653.53;5033548;28;20434;-74
2023/04/04 08:37:16;;;;;;;1.20;0.30;;;;;;;9.11;31.83;100680.91;5032998;28;20519;-75
2023/04/04 08:39:42;;;;;;;2.88;0.40;;;;;;;8.47;32.74;100659.50;5033000;28;20025;-74
2023/04/04 08:42:09;;;;;;;2.58;0.52;;;;;;;8.93;33.36;100656.50;5032529;28;20044;-74
2023/04/04 08:44:38;;;;;;;1.80;0.35;;;;;;;8.80;32.04;100654.09;5033263;28;20048;-74
2023/04/04 08:47:04;;;;;;;2.08;0.50;;;;;;;8.91;31.18;100666.19;5032256;28;20517;-75
2023/04/04 08:49:35;;;;;;;1.23;0.40;;;;;;;8.83;30.82;100659.03;5036899;28;20037;-73
2023/04/04 08:52:02;;;;;;;0.93;0.70;;;;;;;8.67;30.73;100658.66;5034629;28;20399;-76
2023/04/04 08:54:29;;;;;;;1.98;0.30;;;;;;;8.92;29.64;100673.88;5028700;28;20036;-75
2023/04/04 08:56:56;;;;;;;1.55;0.30;;;;;;;9.55;28.56;100645.06;5032993;28;20021;-74
2023/04/04 08:59:22;;;;;;;5.55;0.40;;;;;;;9.77;28.29;100652.66;5032793;28;20033;-75
2023/04/04 09:01:48;;;;;;;0.73;0.30;;;;;;;9.61;28.79;100653.16;5030203;28;20041;-74
2023/04/04 09:04:15;;;;;;;0.93;0.30;;;;;;;9.17;28.54;100645.78;5032455;28;20278;-74
2023/04/04 09:06:40;;;;;;;2.85;0.60;;;;;;;8.72;30.56;100642.69;5032821;28;20509;-74
2023/04/04 09:09:06;;;;;;;2.35;0.30;;;;;;;8.99;30.57;100646.38;5032010;28;20116;-74
2023/04/04 09:11:32;;;;;;;1.67;0.47;;;;;;;8.83;29.74;100640.84;5038044;28;20037;-74
2023/04/04 09:14:03;;;;;;;2.35;0.40;;;;;;;8.45;29.90;100643.22;5030941;28;20044;-75
2023/04/04 09:16:28;;;;;;;2.72;0.28;;;;;;;8.30;29.62;100637.47;5028068;28;20432;-74
2023/04/04 09:18:53;;;;;;;1.58;0.30;;;;;;;8.16;30.90;100646.38;5031413;28;20043;-75
2023/04/04 09:21:19;;;;;;;1.55;0.40;;;;;;;8.39;31.93;100641.97;5032259;28;20037;-74
2023/04/04 09:23:44;;;;;;;1.10;0.40;;;;;;;8.71;32.55;100628.06;5032605;28;20070;-74
2023/04/04 09:26:12;;;;;;;3.42;0.68;;;;;;;8.54;30.59;100639.84;5031534;28;20063;-74
2023/04/04 09:28:37;;;;;;;1.33;0.40;;;;;;;8.50;30.17;100656.66;5032588;28;20033;-74
2023/04/04 09:31:06;;;;;;;1.65;0.50;;;;;;;8.34;30.29;100627.69;5032051;28;20033;-74
2023/04/04 09:33:33;;;;;;;1.65;0.32;;;;;;;8.31;31.03;100639.94;5038313;28;20060;-73
2023/04/04 09:36:11;;;;;;;2.65;0.57;;;;;;;8.48;29.50;100640.38;5032588;28;20037;-74
2023/04/04 09:38:39;;;;;;;4.80;0.30;;;;;;;8.31;30.29;100655.53;5042546;28;20029;-74
2023/04/04 09:41:08;;;;;;;2.05;0.47;;;;;;;8.34;29.58;100643.28;5029594;28;20113;-75
2023/04/04 09:43:34;;;;;;;1.52;0.30;;;;;;;8.42;30.67;100643.47;5032495;28;20021;-74
2023/04/04 09:46:00;;;;;;;0.93;0.40;;;;;;;8.60;29.65;100649.72;5032144;28;20033;-74
2023/04/04 09:48:27;;;;;;;2.25;0.20;;;;;;;8.35;29.85;100639.75;5034202;28;20033;-74
2023/04/04 09:50:53;;;;;;;1.13;0.30;;;;;;;8.55;31.47;100628.50;5028763;28;20032;-73
2023/04/04 09:53:19;;;;;;;1.27;0.30;;;;;;;8.61;30.71;100643.59;5029718;28;20039;-73
2023/04/04 09:55:53;;;;;;;1.98;0.60;;;;;;;8.64;29.41;100631.16;5042245;28;20025;-73
2023/04/04 09:58:24;;;;;;;2.13;0.30;;;;;;;8.59;30.30;100624.72;5031406;28;20041;-73
2023/04/04 10:00:52;;;;;;;1.02;0.30;;;;;;;8.89;29.54;100642.94;5030709;28;20116;-75
2023/04/04 10:03:20;;;;;;;1.38;0.50;;;;;;;8.79;30.97;100628.25;5030930;28;20029;-73
2023/04/04 10:05:46;;;;;;;1.98;0.40;;;;;;;8.92;30.49;100637.47;5028017;28;20053;-74
2023/04/04 10:08:16;;;;;;;1.88;0.28;;;;;;;8.74;29.90;100626.03;5029795;28;20455;-73
2023/04/04 10:10:48;;;;;;;4.20;0.40;;;;;;;8.71;28.78;100631.47;5029868;28;20017;-74
2023/04/04 10:13:22;;;;;;;3.35;0.40;;;;;;;8.80;28.99;100638.50;5023186;28;20179;-73
2023/04/04 10:15:48;;;;;;;0.90;0.30;;;;;;;8.85;28.70;100649.34;5030562;28;20356;-74
2023/04/04 10:18:14;;;;;;;0.80;0.30;;;;;;;8.75;28.76;100638.06;5030600;28;20033;-74
2023/04/04 10:20:42;;;;;;;1.25;0.35;;;;;;;8.83;29.56;100625.25;5030842;28;20099;-74
2023/04/04 10:23:07;;;;;;;0.60;0.30;;;;;;;8.91;28.67;100635.00;5028111;28;20121;-73
2023/04/04 10:25:33;;;;;;;0.90;0.30;;;;;;;8.97;29.31;100616.31;5031106;28;20148;-73
2023/04/04 10:27:59;;;;;;;1.65;0.30;;;;;;;8.99;29.14;100604.81;5031453;28;20025;-73
2023/04/04 10:30:24;;;;;;;2.05;0.30;;;;;;;9.09;29.42;100611.81;5030206;28;20095;-74
2023/04/04 10:33:01;;;;;;;1.40;0.40;;;;;;;9.09;27.81;100615.25;5026284;28;20033;-75
2023/04/04 10:35:29;;;;;;;1.42;0.40;;;;;;;9.12;28.50;100614.97;5035686;28;20076;-73
2023/04/04 10:37:59;;;;;;;2.92;0.32;;;;;;;9.06;27.75;100604.28;5030939;28;20036;-74
2023/04/04 10:40:31;;;;;;;2.28;0.50;;;;;;;9.17;28.77;100606.78;5030454;28;20030;-74
2023/04/04 10:42:58;;;;;;;1.05;0.30;;;;;;;9.30;28.09;100582.19;5030646;28;20033;-74
2023/04/04 10:45:24;;;;;;;2.45;0.40;;;;;;;9.48;28.14;100578.94;5024876;28;20154;-73
2023/04/04 10:47:50;;;;;;;1.98;0.30;;;;;;;9.69;28.71;100581.44;5032598;28;20033;-74
2023/04/04 10:50:16;;;;;;;1.30;0.40;;;;;;;9.63;28.60;100572.38;5030362;28;20056;-73
2023/04/04 10:52:43;;;;;;;1.60;0.40;;;;;;;9.46;28.01;100579.06;5030940;28;20052;-76
2023/04/04 10:55:12;;;;;;;0.98;0.30;;;;;;;9.55;29.11;100578.25;5030233;28;20029;-72
2023/04/04 10:57:42;;;;;;;1.83;0.30;;;;;;;9.59;28.08;100571.00;5030906;28;20070;-72
2023/04/04 11:00:09;;;;;;;0.93;0.30;;;;;;;9.61;28.51;100569.91;5030238;28;20029;-72
2023/04/04 11:02:54;;;;;;;1.35;0.40;;;;;;;9.58;26.92;100575.38;5031544;28;20108;-72
2023/04/04 11:05:19;;;;;;;1.10;0.40;;;;;;;9.89;28.24;100562.28;5030614;28;20049;-74
2023/04/04 11:07:45;;;;;;;1.88;0.30;;;;;;;9.87;28.17;100552.00;5030737;28;20050;-72
2023/04/04 11:10:20;;;;;;;1.35;0.30;;;;;;;9.97;27.79;100551.97;5030100;28;20057;-73
2023/04/04 11:12:46;;;;;;;3.70;0.20;;;;;;;10.18;27.92;100562.22;5029460;28;20347;-73
2023/04/04 11:15:13;;;;;;;1.58;0.40;;;;;;;10.16;27.20;100559.75;5027691;28;20041;-75
2023/04/04 11:17:47;;;;;;;1.70;0.30;;;;;;;10.15;26.45;100565.09;5026611;28;20104;-73
2023/04/04 11:20:33;;;;;;;1.55;0.43;;;;;;;10.02;26.14;100552.38;5031725;28;20482;-73
2023/04/04 11:23:05;;;;;;;0.77;0.20;;;;;;;10.12;27.93;100539.34;5030535;28;20147;-73
2023/04/04 11:25:39;;;;;;;2.38;0.32;;;;;;;10.24;27.13;100536.50;5023170;28;20079;-72
2023/04/04 11:28:11;;;;;;;2.05;0.40;;;;;;;10.22;27.75;100533.19;5029717;28;20116;-73
2023/04/04 11:30:43;;;;;;;2.05;0.30;;;;;;;10.55;28.03;100524.03;5030582;28;20569;-73